createdAt,value
2022-12-29T00:01:40.248Z,22.90
2022-12-29T00:04:15.328Z,18.00
2022-12-29T00:06:45.821Z,22.40
2022-12-29T00:09:17.494Z,21.90
2022-12-29T00:11:47.183Z,21.10
2022-12-29T00:14:35.504Z,19.80
2022-12-29T00:17:04.960Z,23.70
2022-12-29T00:19:55.475Z,23.30
2022-12-29T00:22:44.032Z,23.50
2022-12-29T00:25:33.027Z,20.30
2022-12-29T00:28:20.588Z,22.60
2022-12-29T00:31:08.345Z,26.20
2022-12-29T00:33:55.835Z,25.00
2022-12-29T00:36:36.127Z,23.00
2022-12-29T00:39:36.077Z,16.30
2022-12-29T00:42:28.861Z,14.30
2022-12-29T00:44:58.163Z,14.80
2022-12-29T00:47:27.424Z,14.80
2022-12-29T00:49:56.788Z,14.30
2022-12-29T00:52:26.355Z,13.90
2022-12-29T00:54:55.901Z,14.00
2022-12-29T00:57:25.396Z,10.10
2022-12-29T00:59:55.193Z,12.00
2022-12-29T01:02:26.117Z,13.50
2022-12-29T01:04:58.362Z,14.30
2022-12-29T01:07:27.960Z,15.10
2022-12-29T01:10:12.543Z,14.40
2022-12-29T01:12:42.093Z,13.40
2022-12-29T01:15:17.583Z,17.30
2022-12-29T01:17:48.022Z,19.70
2022-12-29T01:20:17.838Z,18.70
2022-12-29T01:22:48.363Z,20.00
2022-12-29T01:25:17.559Z,16.70
2022-12-29T01:27:47.380Z,16.90
2022-12-29T01:30:16.744Z,14.00
2022-12-29T01:32:47.696Z,17.10
2022-12-29T01:35:17.082Z,13.40
2022-12-29T01:37:47.337Z,15.20
2022-12-29T01:40:18.536Z,13.40
2022-12-29T01:42:48.317Z,13.70
2022-12-29T01:45:19.563Z,11.60
2022-12-29T01:48:06.775Z,15.70
2022-12-29T01:50:47.948Z,13.50
2022-12-29T01:53:29.434Z,12.80
2022-12-29T01:56:09.306Z,13.90
2022-12-29T01:58:45.219Z,17.50
2022-12-29T02:01:16.540Z,14.40
2022-12-29T02:03:49.398Z,14.00
2022-12-29T02:06:32.547Z,14.80
2022-12-29T02:09:02.380Z,11.40
2022-12-29T02:14:13.414Z,12.10
2022-12-29T02:16:57.370Z,12.50
2022-12-29T02:19:57.137Z,10.70
2022-12-29T02:22:36.006Z,13.10
2022-12-29T02:25:10.862Z,11.20
2022-12-29T02:28:28.464Z,11.80
2022-12-29T02:31:28.776Z,11.10
2022-12-29T02:34:43.627Z,10.70
2022-12-29T02:37:50.067Z,8.80
2022-12-29T02:40:50.176Z,12.10
2022-12-29T02:44:12.272Z,11.40
2022-12-29T02:47:23.766Z,8.90
2022-12-29T02:50:05.134Z,14.20
2022-12-29T02:52:51.829Z,10.00
2022-12-29T02:55:21.295Z,8.80
2022-12-29T02:58:27.938Z,10.40
2022-12-29T03:01:30.223Z,8.70
2022-12-29T03:04:56.796Z,9.50
2022-12-29T03:07:49.357Z,7.70
2022-12-29T03:11:00.340Z,9.60
2022-12-29T03:14:16.816Z,12.10
2022-12-29T03:17:03.340Z,11.70
2022-12-29T03:19:50.995Z,10.80
2022-12-29T03:22:28.712Z,12.90
2022-12-29T03:25:34.174Z,11.30
2022-12-29T03:30:51.625Z,12.40
2022-12-29T03:33:26.659Z,13.80
2022-12-29T03:36:04.291Z,16.80
2022-12-29T03:38:57.267Z,16.70
2022-12-29T03:41:32.578Z,17.10
2022-12-29T03:44:02.963Z,20.30
2022-12-29T03:46:35.557Z,17.30
2022-12-29T03:49:07.791Z,17.20
2022-12-29T03:51:38.003Z,14.90
2022-12-29T03:54:10.745Z,13.70
2022-12-29T03:56:42.862Z,12.40
2022-12-29T03:59:15.860Z,10.90
2022-12-29T04:01:47.806Z,11.00
2022-12-29T04:04:19.015Z,10.10
2022-12-29T04:06:50.555Z,9.30
2022-12-29T04:09:20.216Z,8.40
2022-12-29T04:11:51.883Z,7.50
2022-12-29T04:14:24.807Z,7.90
2022-12-29T04:16:57.160Z,6.30
2022-12-29T04:19:27.250Z,7.80
2022-12-29T04:21:59.280Z,8.80
2022-12-29T04:24:33.599Z,8.80
2022-12-29T04:27:03.830Z,7.50
2022-12-29T04:29:58.904Z,7.40
2022-12-29T04:32:43.746Z,7.10
2022-12-29T04:35:20.338Z,15.80
2022-12-29T04:37:52.557Z,6.40
2022-12-29T04:40:22.480Z,8.00
2022-12-29T04:42:52.286Z,6.70
2022-12-29T04:45:24.030Z,6.40
2022-12-29T04:48:07.005Z,6.40
2022-12-29T04:50:51.391Z,7.50
2022-12-29T04:53:39.003Z,5.70
2022-12-29T04:56:10.393Z,5.90
2022-12-29T04:58:45.897Z,4.50
2022-12-29T05:01:16.737Z,5.20
2022-12-29T05:03:46.553Z,5.70
2022-12-29T05:06:19.974Z,6.00
2022-12-29T05:08:52.290Z,4.20
2022-12-29T05:11:23.269Z,5.30
2022-12-29T05:13:56.867Z,4.20
2022-12-29T05:16:35.888Z,7.90
2022-12-29T05:19:07.301Z,6.90
2022-12-29T05:21:39.814Z,6.80
2022-12-29T05:24:10.226Z,6.50
2022-12-29T05:26:47.459Z,6.10
2022-12-29T05:32:18.785Z,5.60
2022-12-29T05:35:08.244Z,7.10
2022-12-29T05:37:45.617Z,5.90
2022-12-29T05:40:25.720Z,7.20
2022-12-29T05:43:04.115Z,7.20
2022-12-29T05:45:43.046Z,8.60
2022-12-29T05:48:41.726Z,9.20
2022-12-29T05:51:20.787Z,6.40
2022-12-29T05:53:51.773Z,7.10
2022-12-29T05:56:21.210Z,10.60
2022-12-29T05:58:57.217Z,8.90
2022-12-29T06:01:27.175Z,9.70
2022-12-29T06:03:57.020Z,9.40
2022-12-29T06:06:26.923Z,9.90
2022-12-29T06:08:58.878Z,9.30
2022-12-29T06:11:28.193Z,7.80
2022-12-29T06:14:00.934Z,10.60
2022-12-29T06:16:30.647Z,8.90
2022-12-29T06:19:02.029Z,10.50
2022-12-29T06:21:33.107Z,8.00
2022-12-29T06:24:20.512Z,9.80
2022-12-29T06:26:50.359Z,9.30
2022-12-29T06:29:21.683Z,11.40
2022-12-29T06:31:57.347Z,9.40
2022-12-29T06:34:26.708Z,10.30
2022-12-29T06:36:56.102Z,7.70
2022-12-29T06:39:25.257Z,7.90
2022-12-29T06:42:05.143Z,7.30
2022-12-29T06:44:53.482Z,7.20
2022-12-29T06:47:22.588Z,11.10
2022-12-29T06:49:51.845Z,8.70
2022-12-29T06:52:25.399Z,16.10
2022-12-29T06:55:00.308Z,21.40
2022-12-29T06:57:30.334Z,18.20
2022-12-29T07:00:00.028Z,15.00
2022-12-29T07:02:29.834Z,12.30
2022-12-29T07:04:59.438Z,11.90
2022-12-29T07:07:28.844Z,13.20
2022-12-29T07:09:58.436Z,10.40
2022-12-29T07:12:28.353Z,17.20
2022-12-29T07:14:57.970Z,10.30
2022-12-29T07:17:27.275Z,15.00
2022-12-29T07:19:56.573Z,15.40
2022-12-29T07:22:25.761Z,15.40
2022-12-29T07:24:54.887Z,10.10
2022-12-29T07:27:23.939Z,12.30
2022-12-29T07:29:53.552Z,10.60
2022-12-29T07:32:22.983Z,9.50
2022-12-29T07:34:53.338Z,11.50
2022-12-29T07:37:22.864Z,11.70
2022-12-29T07:39:52.143Z,10.80
2022-12-29T07:42:21.426Z,10.70
2022-12-29T07:44:54.233Z,11.00
2022-12-29T07:47:36.810Z,10.90
2022-12-29T07:50:07.625Z,11.80
2022-12-29T07:52:37.347Z,12.80
2022-12-29T07:55:07.985Z,17.40
2022-12-29T07:57:39.207Z,13.20
2022-12-29T08:00:10.897Z,18.80
2022-12-29T08:02:43.639Z,21.40
2022-12-29T08:05:13.324Z,21.00
2022-12-29T08:07:46.277Z,20.80
2022-12-29T08:10:16.973Z,19.00
2022-12-29T08:12:46.167Z,21.80
2022-12-29T08:15:15.794Z,16.70
2022-12-29T08:17:44.946Z,15.20
2022-12-29T08:20:14.229Z,14.90
2022-12-29T08:22:43.433Z,12.60
2022-12-29T08:25:12.691Z,16.10
2022-12-29T08:27:41.981Z,22.80
2022-12-29T08:30:15.962Z,18.20
2022-12-29T08:32:45.568Z,17.80
2022-12-29T08:35:14.944Z,15.80
2022-12-29T08:37:44.424Z,16.10
2022-12-29T08:40:14.690Z,12.80
2022-12-29T08:42:44.784Z,18.10
2022-12-29T08:45:16.657Z,15.30
2022-12-29T08:47:46.269Z,20.70
2022-12-29T08:50:15.947Z,15.40
2022-12-29T08:52:45.675Z,32.50
2022-12-29T08:55:15.311Z,13.50
2022-12-29T08:57:46.619Z,18.90
2022-12-29T09:00:24.792Z,16.40
2022-12-29T09:02:54.816Z,13.70
2022-12-29T09:05:24.175Z,13.90
2022-12-29T09:07:53.400Z,16.60
2022-12-29T09:10:22.476Z,13.60
2022-12-29T09:12:51.771Z,14.40
2022-12-29T09:15:21.083Z,13.70
2022-12-29T09:17:50.522Z,11.40
2022-12-29T09:20:20.828Z,14.10
2022-12-29T09:22:52.275Z,14.10
2022-12-29T09:25:26.255Z,15.60
2022-12-29T09:28:01.003Z,15.60
2022-12-29T09:30:30.925Z,18.50
2022-12-29T09:33:00.403Z,27.00
2022-12-29T09:35:29.796Z,27.50
2022-12-29T09:38:02.362Z,16.10
2022-12-29T09:40:34.643Z,13.90
2022-12-29T09:43:30.789Z,15.30
2022-12-29T09:46:18.879Z,17.20
2022-12-29T09:49:08.277Z,13.00
2022-12-29T09:51:44.694Z,14.40
2022-12-29T09:55:07.736Z,27.40
2022-12-29T09:58:01.507Z,22.40
2022-12-29T10:00:55.985Z,16.50
2022-12-29T10:03:37.968Z,17.70
2022-12-29T10:06:25.308Z,18.70
2022-12-29T10:09:16.893Z,19.20
2022-12-29T10:12:27.567Z,18.50
2022-12-29T10:15:38.656Z,19.40
2022-12-29T10:21:40.920Z,12.40
2022-12-29T10:24:23.778Z,12.70
2022-12-29T10:26:53.597Z,9.30
2022-12-29T10:29:40.749Z,9.10
2022-12-29T10:32:58.318Z,14.30
2022-12-29T10:35:38.384Z,12.40
2022-12-29T10:38:37.202Z,9.90
2022-12-29T10:41:22.948Z,18.10
2022-12-29T10:43:56.058Z,13.20
2022-12-29T10:46:35.884Z,16.20
2022-12-29T10:49:21.060Z,12.70
2022-12-29T10:51:54.225Z,25.80
2022-12-29T10:54:39.707Z,25.00
2022-12-29T10:57:23.115Z,30.40
2022-12-29T10:59:52.308Z,19.20
2022-12-29T11:03:03.436Z,18.90
2022-12-29T11:05:55.992Z,14.10
2022-12-29T11:08:36.128Z,13.50
2022-12-29T11:11:11.488Z,17.70
2022-12-29T11:13:52.894Z,16.30
2022-12-29T11:16:35.752Z,17.40
2022-12-29T11:19:05.075Z,12.50
2022-12-29T11:21:41.485Z,19.50
2022-12-29T11:24:30.545Z,23.60
2022-12-29T11:27:17.971Z,21.00
2022-12-29T11:29:47.840Z,14.10
2022-12-29T11:32:32.560Z,21.90
2022-12-29T11:35:05.581Z,41.80
2022-12-29T11:37:41.238Z,16.60
2022-12-29T11:40:22.501Z,23.00
2022-12-29T11:43:35.306Z,140.60
2022-12-29T11:46:08.410Z,121.70
2022-12-29T11:48:42.860Z,49.50
2022-12-29T11:53:53.039Z,133.60
2022-12-29T11:56:43.457Z,95.10
2022-12-29T11:59:31.065Z,59.40
2022-12-29T12:02:04.458Z,30.50
2022-12-29T12:04:38.514Z,22.00
2022-12-29T12:07:29.871Z,18.80
2022-12-29T12:10:07.997Z,12.30
2022-12-29T12:12:57.712Z,9.50
2022-12-29T12:15:50.155Z,15.80
2022-12-29T12:18:42.885Z,16.20
2022-12-29T12:21:26.504Z,19.00
2022-12-29T12:24:40.366Z,29.60
2022-12-29T12:27:31.278Z,52.20
2022-12-29T12:30:16.200Z,30.30
2022-12-29T12:33:15.305Z,26.80
2022-12-29T12:36:08.962Z,29.50
2022-12-29T12:39:27.590Z,21.00
2022-12-29T12:42:33.220Z,18.60
2022-12-29T12:45:44.830Z,15.80
2022-12-29T12:48:41.818Z,19.00
2022-12-29T12:51:37.390Z,17.60
2022-12-29T12:54:32.843Z,17.80
2022-12-29T12:57:17.077Z,18.60
2022-12-29T12:59:58.395Z,22.40
2022-12-29T13:02:53.503Z,23.00
2022-12-29T13:05:58.601Z,24.40
2022-12-29T13:09:07.764Z,23.80
2022-12-29T13:12:40.198Z,17.10
2022-12-29T13:15:12.155Z,17.60
2022-12-29T13:18:00.744Z,22.60
2022-12-29T13:21:18.567Z,20.30
2022-12-29T13:24:00.799Z,20.10
2022-12-29T13:26:43.823Z,21.20
2022-12-29T13:29:37.570Z,22.00
2022-12-29T13:32:25.795Z,17.60
2022-12-29T13:35:26.052Z,25.60
2022-12-29T13:38:18.697Z,28.50
2022-12-29T13:40:56.031Z,17.30
2022-12-29T13:43:34.661Z,17.80
2022-12-29T13:46:32.697Z,14.40
2022-12-29T13:49:29.150Z,17.20
2022-12-29T13:52:20.479Z,24.50
2022-12-29T13:55:34.839Z,48.60
2022-12-29T13:58:37.778Z,32.60
2022-12-29T14:01:58.109Z,22.30
2022-12-29T14:04:36.608Z,24.40
2022-12-29T14:07:19.036Z,22.80
2022-12-29T14:09:57.842Z,17.50
2022-12-29T14:12:36.072Z,18.70
2022-12-29T14:15:11.513Z,21.40
2022-12-29T14:18:05.064Z,22.00
2022-12-29T14:20:35.999Z,21.00
2022-12-29T14:23:11.904Z,32.40
2022-12-29T14:26:33.420Z,29.30
2022-12-29T14:29:50.319Z,21.60
2022-12-29T14:32:30.463Z,17.90
2022-12-29T14:35:50.606Z,31.80
2022-12-29T14:38:25.525Z,42.00
2022-12-29T14:41:35.917Z,26.10
2022-12-29T14:44:08.528Z,23.90
2022-12-29T14:47:10.070Z,20.50
2022-12-29T14:49:45.280Z,16.80
2022-12-29T14:52:21.133Z,18.30
2022-12-29T14:54:55.817Z,20.50
2022-12-29T14:57:48.714Z,24.30
2022-12-29T15:00:34.019Z,22.90
2022-12-29T15:03:14.166Z,29.60
2022-12-29T15:05:57.706Z,34.40
2022-12-29T15:08:32.034Z,39.20
2022-12-29T15:11:24.763Z,37.00
2022-12-29T15:13:53.980Z,37.90
2022-12-29T15:16:32.965Z,35.30
2022-12-29T15:19:06.909Z,28.80
2022-12-29T15:21:37.869Z,25.00
2022-12-29T15:24:07.635Z,20.90
2022-12-29T15:26:42.480Z,24.90
2022-12-29T15:30:02.207Z,22.90
2022-12-29T15:32:44.342Z,21.30
2022-12-29T15:35:33.688Z,21.50
2022-12-29T15:38:31.177Z,24.20
2022-12-29T15:41:58.511Z,19.60
2022-12-29T15:44:43.470Z,30.40
2022-12-29T15:47:29.823Z,29.00
2022-12-29T15:50:17.625Z,19.50
2022-12-29T15:52:47.239Z,20.80
2022-12-29T15:55:36.520Z,15.70
2022-12-29T15:58:20.452Z,15.90
2022-12-29T16:01:02.849Z,15.90
2022-12-29T16:03:37.456Z,21.10
2022-12-29T16:06:26.520Z,28.70
2022-12-29T16:09:08.098Z,34.90
2022-12-29T16:11:41.518Z,22.80
2022-12-29T16:14:18.866Z,20.30
2022-12-29T16:16:50.844Z,19.40
2022-12-29T16:19:28.111Z,15.70
2022-12-29T16:22:02.032Z,20.10
2022-12-29T16:24:34.466Z,18.90
2022-12-29T16:27:38.388Z,23.90
2022-12-29T16:30:33.921Z,22.80
2022-12-29T16:33:07.127Z,17.70
2022-12-29T16:35:49.525Z,16.50
2022-12-29T16:38:34.518Z,18.10
2022-12-29T16:41:04.729Z,19.50
2022-12-29T16:43:43.126Z,19.10
2022-12-29T16:46:31.852Z,18.80
2022-12-29T16:49:12.632Z,21.50
2022-12-29T16:51:46.928Z,18.30
2022-12-29T16:54:25.065Z,21.30
2022-12-29T16:56:54.712Z,19.40
2022-12-29T16:59:43.940Z,24.00
2022-12-29T17:02:22.559Z,24.40
2022-12-29T17:04:55.125Z,28.10
2022-12-29T17:07:29.095Z,27.30
2022-12-29T17:10:03.775Z,23.00
2022-12-29T17:12:37.724Z,19.50
2022-12-29T17:15:33.305Z,18.00
2022-12-29T17:18:13.360Z,20.60
2022-12-29T17:20:46.503Z,25.00
2022-12-29T17:23:25.950Z,27.30
2022-12-29T17:25:59.505Z,23.40
2022-12-29T17:28:32.353Z,20.90
2022-12-29T17:31:06.040Z,17.50
2022-12-29T17:33:40.287Z,18.60
2022-12-29T17:36:17.352Z,20.30
2022-12-29T17:38:47.447Z,20.20
2022-12-29T17:41:20.048Z,19.80
2022-12-29T17:43:51.280Z,18.90
2022-12-29T17:46:22.773Z,18.00
2022-12-29T17:48:54.047Z,17.70
2022-12-29T17:51:24.936Z,21.50
2022-12-29T17:53:54.580Z,20.00
2022-12-29T17:56:24.205Z,23.00
2022-12-29T17:59:00.829Z,20.80
2022-12-29T18:01:36.219Z,17.90
2022-12-29T18:04:07.612Z,19.70
2022-12-29T18:06:36.824Z,18.10
2022-12-29T18:09:08.964Z,21.90
2022-12-29T18:11:43.647Z,19.30
2022-12-29T18:14:17.786Z,16.00
2022-12-29T18:16:59.347Z,17.30
2022-12-29T18:19:33.954Z,18.20
2022-12-29T18:22:05.309Z,18.10
2022-12-29T18:24:34.710Z,20.50
2022-12-29T18:27:19.203Z,22.50
2022-12-29T18:29:50.363Z,22.30
2022-12-29T18:32:24.278Z,20.10
2022-12-29T18:34:54.103Z,22.40
2022-12-29T18:37:23.685Z,20.10
2022-12-29T18:39:53.141Z,21.50
2022-12-29T18:42:22.495Z,20.80
2022-12-29T18:44:55.569Z,19.60
2022-12-29T18:47:24.779Z,21.10
2022-12-29T18:49:58.321Z,22.80
2022-12-29T18:52:47.992Z,19.80
2022-12-29T18:58:17.783Z,23.00
2022-12-29T19:00:53.496Z,26.90
2022-12-29T19:03:26.145Z,22.10
2022-12-29T19:13:01.022Z,26.00
2022-12-29T19:15:34.347Z,26.90
2022-12-29T19:18:42.482Z,26.00
2022-12-29T19:20:57.995Z,24.90
2022-12-29T19:23:28.574Z,28.90
2022-12-29T19:25:57.900Z,23.50
2022-12-29T19:28:29.538Z,22.70
2022-12-29T19:31:02.840Z,23.00
2022-12-29T19:33:32.670Z,21.90
2022-12-29T19:36:08.310Z,18.00
2022-12-29T19:38:39.607Z,18.40
2022-12-29T19:41:15.622Z,22.00
2022-12-29T19:43:50.795Z,21.80
2022-12-29T19:46:24.644Z,19.00
2022-12-29T19:49:05.998Z,22.40
2022-12-29T19:51:39.662Z,20.90
2022-12-29T19:54:11.483Z,24.60
2022-12-29T19:56:44.610Z,24.30
2022-12-29T19:59:14.140Z,20.50
2022-12-29T20:01:44.025Z,23.50
2022-12-29T20:04:13.540Z,19.30
2022-12-29T20:06:48.831Z,18.50
2022-12-29T20:09:28.654Z,18.80
2022-12-29T20:12:00.254Z,21.50
2022-12-29T20:14:29.681Z,19.80
2022-12-29T20:17:10.686Z,18.60
2022-12-29T20:19:53.281Z,19.10
2022-12-29T20:22:23.659Z,23.00
2022-12-29T20:25:05.129Z,19.20
2022-12-29T20:27:43.304Z,21.80
2022-12-29T20:30:14.264Z,20.20
2022-12-29T20:32:46.879Z,17.60
2022-12-29T20:35:22.952Z,20.10
2022-12-29T20:37:53.263Z,21.30
2022-12-29T20:40:23.244Z,19.50
2022-12-29T20:42:54.265Z,25.50
2022-12-29T20:45:26.508Z,38.70
2022-12-29T20:47:56.206Z,21.50
2022-12-29T20:50:29.083Z,18.10
2022-12-29T20:52:58.732Z,19.50
2022-12-29T20:55:28.381Z,21.00
2022-12-29T20:58:23.176Z,22.60
2022-12-29T21:00:51.898Z,19.60
2022-12-29T21:03:23.047Z,20.50
2022-12-29T21:05:54.270Z,18.90
2022-12-29T21:08:24.948Z,18.20
2022-12-29T21:10:57.503Z,17.30
2022-12-29T21:13:31.248Z,17.00
2022-12-29T21:16:08.351Z,36.40
2022-12-29T21:18:38.272Z,20.10
2022-12-29T21:21:20.097Z,23.20
2022-12-29T21:23:50.884Z,26.60
2022-12-29T21:26:24.182Z,20.30
2022-12-29T21:28:53.691Z,21.90
2022-12-29T21:31:33.660Z,21.60
2022-12-29T21:34:05.733Z,20.00
2022-12-29T21:39:05.145Z,20.40
2022-12-29T21:41:35.284Z,21.40
2022-12-29T21:44:23.410Z,24.40
2022-12-29T21:46:52.779Z,22.30
2022-12-29T21:49:26.419Z,19.90
2022-12-29T21:51:57.735Z,23.20
2022-12-29T21:54:48.767Z,22.10
2022-12-29T21:57:38.205Z,18.80
2022-12-29T22:00:28.824Z,20.40
2022-12-29T22:03:22.562Z,24.40
2022-12-29T22:06:14.047Z,31.20
2022-12-29T22:09:02.300Z,24.20
2022-12-29T22:11:50.567Z,21.80
2022-12-29T22:14:23.611Z,22.40
2022-12-29T22:16:56.160Z,23.60
2022-12-29T22:19:28.494Z,26.70
2022-12-29T22:24:29.679Z,28.10
2022-12-29T22:26:59.339Z,33.20
2022-12-29T22:29:28.619Z,33.50
2022-12-29T22:31:57.978Z,31.10
2022-12-29T22:34:27.550Z,33.60
2022-12-29T22:36:57.027Z,33.30
2022-12-29T22:39:29.893Z,29.90
2022-12-29T22:41:59.399Z,22.60
2022-12-29T22:44:31.513Z,23.80
2022-12-29T22:47:02.019Z,27.10
2022-12-29T22:49:31.801Z,24.40
2022-12-29T22:52:01.661Z,24.90
2022-12-29T22:54:32.059Z,24.80
2022-12-29T22:57:02.992Z,25.00
2022-12-29T22:59:33.079Z,24.80
2022-12-29T23:02:02.360Z,24.90
2022-12-29T23:10:11.081Z,26.10
2022-12-29T23:12:42.965Z,24.40
2022-12-29T23:15:15.004Z,22.50
2022-12-29T23:17:46.257Z,24.60
2022-12-29T23:20:15.498Z,25.50
2022-12-29T23:22:44.956Z,22.70
2022-12-29T23:25:14.729Z,25.40
2022-12-29T23:27:54.563Z,26.00
2022-12-29T23:30:24.620Z,23.90
2022-12-29T23:33:03.765Z,27.00
2022-12-29T23:35:35.797Z,27.70
2022-12-29T23:38:05.131Z,25.10
2022-12-29T23:40:34.410Z,22.90
2022-12-29T23:43:03.725Z,24.10
2022-12-29T23:45:36.870Z,21.60
2022-12-29T23:48:06.668Z,28.90
2022-12-29T23:50:39.090Z,24.90
2022-12-29T23:53:10.303Z,22.00
2022-12-29T23:55:43.526Z,23.50
2022-12-29T23:58:12.675Z,22.90
